Latest Weather Observations for Mangalore

IDV60801

Issued at 3:31 pm EDT Wednesday 10 February 2016 (issued every 30 minutes, with the page automatically refreshed every 10 minutes)

About weather observations | Map of weather stations | Latest weather observations for VIC | Other Formats
Station Details ID: 088109 Name: MANGALORE AIRPORT Lat: -36.89 Lon: 145.19 Height: 140.8 m
Data from the previous 72 hours. | See also: Recent months at Mangalore
Date/Time
EDT
Temp
°C
App
Temp
°C
Dew
Point
Rel
Hum
%
Delta-T
°C
Wind Press
QNH
hPa
Press
MSL
hPa
Rain
since 9 am
mm
Dir
 
Spd
km/h
Gust
km/h
Spd
kts
Gust
kts
10/03:30pm 30.2 24.8 2.5 17 13.9 SSW 20 28 11 15 1012.2 1011.6 0.0
10/03:00pm 29.9 25.6 7.8 25 12.1 SSW 20 28 11 15 1012.5 1011.9 0.0
10/02:30pm 29.3 26.2 10.4 31 10.8 SSW 17 28 9 15 1012.8 1012.2 0.0
10/02:00pm 28.6 25.9 10.3 32 10.4 SSW 15 22 8 12 1013.1 1012.5 0.0
10/01:30pm 28.3 25.8 10.9 34 10.0 S 15 22 8 12 1013.4 1012.8 0.0
10/01:00pm 26.5 24.4 13.6 45 7.7 SSW 17 24 9 13 1013.7 1013.1 0.0
10/12:30pm 25.5 24.1 14.6 51 6.5 SSW 15 22 8 12 1014.1 1013.5 0.0
10/12:00pm 24.6 22.7 14.1 52 6.2 SSW 17 22 9 12 1014.5 1014.0 0.0
10/11:30am 23.9 21.9 14.9 57 5.4 S 19 24 10 13 1014.7 1014.2 0.0
10/11:00am 23.1 21.8 15.9 64 4.4 SSW 17 24 9 13 1015.0 1014.5 0.0
10/10:30am 20.9 18.5 14.5 67 3.8 SSW 20 28 11 15 1015.1 1014.6 0.0
10/10:00am 20.4 17.6 14.3 68 3.6 SSW 22 30 12 16 1015.2 1014.7 0.0
10/09:30am 19.6 17.2 14.4 72 3.0 SSW 20 26 11 14 1015.1 1014.6 0.0
10/09:00am 18.6 16.2 14.3 76 2.5 SSW 20 30 11 16 1015.0 1014.5 0.0
10/08:30am 17.8 15.4 14.3 80 2.0 SSW 20 32 11 17 1014.7 1014.2 0.0
10/08:00am 16.7 14.4 14.2 85 1.4 SSW 19 24 10 13 1014.3 1013.8 0.0
10/07:30am 15.9 13.9 13.9 88 1.1 SSW 17 22 9 12 1013.9 1013.3 0.0
10/07:00am 15.6 13.6 13.8 89 1.0 SSW 17 22 9 12 1013.9 1013.3 0.0
10/06:30am 15.7 13.3 13.7 88 1.1 SSW 19 24 10 13 1013.8 1013.2 0.0
10/06:00am 15.8 13.4 13.8 88 1.1 SSW 19 28 10 15 1013.6 1013.0 0.0
10/05:30am 16.0 13.5 14.0 88 1.1 SSW 20 28 11 15 1013.5 1012.9 0.0
10/05:00am 16.1 14.2 14.1 88 1.1 SSW 17 22 9 12 1013.4 1012.8 0.0
10/04:30am 16.0 14.0 14.0 88 1.1 SSW 17 20 9 11 1013.5 1012.9 0.0
10/04:00am 16.0 14.4 14.0 88 1.1 SSW 15 20 8 11 1013.6 1013.0 0.0
10/03:30am 16.2 14.2 14.0 87 1.3 SSW 17 24 9 13 1013.8 1013.2 0.0
10/03:00am 16.3 14.0 14.0 86 1.3 SSW 19 28 10 15 1013.8 1013.2 0.0
10/02:30am 16.5 14.2 14.0 85 1.4 SSW 19 24 10 13 1014.1 1013.5 0.0
10/02:00am 16.9 15.1 14.4 85 1.4 SSW 17 24 9 13 1014.2 1013.6 0.0
10/01:30am 17.1 15.2 14.2 83 1.7 SSW 17 22 9 12 1014.4 1013.9 0.0
10/01:00am 17.4 15.5 14.3 82 1.8 SSW 17 24 9 13 1014.6 1014.1 0.0
10/12:30am 17.8 15.5 14.1 79 2.1 SSW 19 22 10 12 1014.7 1014.2 0.0
10/12:00am 18.1 16.2 14.2 78 2.3 SSW 17 22 9 12 1015.0 1014.5 0.0
 
Date/Time
EDT
Temp
°C
App
Temp
°C
Dew
Point
Rel
Hum
%
Delta-T
°C
Wind Press
QNH
hPa
Press
MSL
hPa
Rain
since 9 am
mm
Dir
 
Spd
km/h
Gust
km/h
Spd
kts
Gust
kts
09/11:30pm 18.6 17.1 14.1 75 2.6 SSW 15 20 8 11 1015.2 1014.7 0.0
09/11:00pm 19.4 17.4 14.0 71 3.1 SSW 17 22 9 12 1015.4 1014.9 0.0
09/10:30pm 20.0 18.0 13.9 68 3.5 SSW 17 20 9 11 1015.5 1015.0 0.0
09/10:00pm 21.0 19.0 13.9 64 4.1 SSW 17 24 9 13 1015.5 1015.0 0.0
09/09:30pm 22.3 19.7 13.9 59 4.9 SSW 20 28 11 15 1015.1 1014.6 0.0
09/09:00pm 23.5 21.4 13.7 54 5.7 SSW 17 22 9 12 1014.9 1014.4 0.0
09/08:30pm 25.6 23.2 12.8 45 7.5 S 17 28 9 15 1014.9 1014.4 0.0
09/08:00pm 27.4 25.0 12.6 40 8.7 SSW 17 26 9 14 1014.8 1014.3 0.0
09/07:30pm 28.3 25.6 13.0 39 9.1 SSW 19 28 10 15 1014.7 1014.2 0.0
09/07:00pm 29.5 27.2 12.9 36 9.9 SSW 17 22 9 12 1014.5 1014.0 0.0
09/06:30pm 30.6 28.0 12.0 32 10.9 S 17 24 9 13 1014.5 1014.0 0.0
09/06:00pm 31.5 28.5 9.1 25 12.6 WSW 15 20 8 11 1014.6 1014.1 0.0
09/05:30pm 31.4 27.6 5.8 20 13.7 SW 15 19 8 10 1014.9 1014.4 0.0
09/05:00pm 31.0 28.4 9.3 26 12.3 SW 13 19 7 10 1015.1 1014.6 0.0
09/04:30pm 30.9 28.6 10.3 28 11.8 SSW 13 19 7 10 1015.4 1014.9 0.0
09/04:00pm 30.7 28.6 11.1 30 11.4 S 13 20 7 11 1015.9 1015.4 0.0
09/03:30pm 30.4 29.6 12.8 34 10.5 SSW 9 17 5 9 1016.2 1015.7 0.0
09/03:00pm 29.5 28.0 12.0 34 10.2 S 11 19 6 10 1016.6 1016.1 0.0
09/02:30pm 29.2 27.9 12.6 36 9.8 W 11 20 6 11 1017.1 1016.6 0.0
09/02:00pm 29.0 28.5 14.8 42 8.7 SW 11 19 6 10 1017.5 1017.0 0.0
09/01:30pm 27.8 26.1 12.6 39 8.9 SSW 13 19 7 10 1017.9 1017.4 0.0
09/01:00pm 27.0 25.1 11.9 39 8.7 SW 13 19 7 10 1018.2 1017.7 0.0
09/12:30pm 26.3 24.3 12.7 43 7.9 SW 15 22 8 12 1018.6 1018.1 0.0
09/12:00pm 25.3 23.0 12.9 46 7.2 SSW 17 22 9 12 1019.1 1018.5 0.0
09/11:30am 24.0 21.0 12.0 47 6.9 SSW 19 24 10 13 1019.5 1018.9 0.0
09/11:00am 23.3 20.1 11.4 47 6.7 SSW 19 24 10 13 1019.6 1019.0 0.0
09/10:30am 21.9 18.5 11.3 51 5.9 SSW 20 30 11 16 1019.7 1019.1 0.0
09/10:00am 20.8 17.2 12.0 57 4.9 S 22 28 12 15 1019.9 1019.3 0.0
09/09:30am 19.5 15.4 11.5 60 4.4 S 24 32 13 17 1020.0 1019.4 0.0
09/09:00am 18.7 15.1 11.8 64 3.8 S 22 30 12 16 1020.1 1019.5 0.0
09/08:30am 17.4 13.6 11.2 67 3.4 S 22 33 12 18 1019.9 1019.3 0.0
09/08:00am 16.4 12.9 10.9 70 3.0 S 20 26 11 14 1019.8 1019.2 0.0
09/07:30am 15.3 12.4 10.9 75 2.4 S 17 24 9 13 1019.8 1019.2 0.0
09/07:00am 14.5 11.8 10.5 77 2.1 SSW 15 19 8 10 1019.6 1019.0 0.0
09/06:30am 14.6 11.5 10.4 76 2.2 S 17 24 9 13 1019.4 1018.8 0.0
09/06:00am 15.1 11.6 10.3 73 2.5 S 19 24 10 13 1019.1 1018.5 0.0
09/05:30am 14.6 12.2 10.2 75 2.3 S 13 19 7 10 1018.9 1018.3 0.0
09/05:00am 14.9 12.5 9.9 72 2.6 S 13 20 7 11 1018.6 1018.1 0.0
09/04:30am 15.0 12.3 10.2 73 2.5 S 15 19 8 10 1018.5 1018.0 0.0
09/04:00am 15.4 12.0 10.4 72 2.6 S 19 26 10 14 1018.5 1018.0 0.0
09/03:30am 15.6 13.7 10.4 71 2.8 SSW 11 19 6 10 1018.6 1018.1 0.0
09/03:00am 15.7 12.7 10.7 72 2.7 S 17 22 9 12 1018.8 1018.2 0.0
09/02:30am 16.0 12.5 11.0 72 2.7 S 20 30 11 16 1018.9 1018.3 0.0
09/02:00am 16.2 11.3 11.4 73 2.6 S 28 39 15 21 1019.1 1018.5 0.0
09/01:30am 16.4 12.0 11.6 73 2.6 S 26 35 14 19 1019.4 1018.8 0.0
09/01:00am 16.6 12.9 11.5 72 2.8 SSW 22 35 12 19 1019.8 1019.2 0.0
09/12:30am 17.1 11.4 11.2 68 3.2 S 32 43 17 23 1019.8 1019.2 0.0
09/12:00am 18.0 13.0 11.1 64 3.8 S 28 39 15 21 1019.9 1019.3 0.0
 
Date/Time
EDT
Temp
°C
App
Temp
°C
Dew
Point
Rel
Hum
%
Delta-T
°C
Wind Press
QNH
hPa
Press
MSL
hPa
Rain
since 9 am
mm
Dir
 
Spd
km/h
Gust
km/h
Spd
kts
Gust
kts
08/11:34pm 18.2 13.3 11.3 64 3.8 S 28 46 15 25 1020.0 1019.4 0.0
08/11:30pm 18.3 14.6 11.6 65 3.7 S 22 41 12 22 1020.0 1019.4 0.0
08/11:00pm 17.8 14.8 12.5 71 3.0 SSW 20 33 11 18 1020.1 1019.5 0.0
08/10:30pm 18.4 15.9 12.4 68 3.4 SSW 17 26 9 14 1020.1 1019.5 0.0
08/10:00pm 19.5 16.4 11.5 60 4.4 S 19 30 10 16 1020.1 1019.5 0.0
08/09:30pm 20.9 17.3 9.8 49 6.0 SSE 19 32 10 17 1019.9 1019.3 0.0
08/09:00pm 21.9 16.4 9.1 44 6.9 S 28 41 15 22 1019.4 1018.8 0.0
08/08:30pm 22.5 18.0 11.3 49 6.3 S 26 35 14 19 1019.2 1018.6 0.0
08/08:00pm 23.7 18.4 11.1 45 7.1 SSE 30 39 16 21 1019.1 1018.5 0.0
08/07:30pm 25.1 19.0 9.8 38 8.5 SSE 32 44 17 24 1018.6 1018.1 0.0
08/07:00pm 26.3 20.8 9.2 34 9.4 S 28 41 15 22 1018.2 1017.7 0.0
08/06:30pm 26.3 21.9 11.6 40 8.4 SSW 26 39 14 21 1018.0 1017.5 0.0
08/06:00pm 27.2 23.3 10.8 36 9.3 SSW 22 32 12 17 1018.0 1017.5 0.0
08/05:30pm 27.6 23.1 9.9 33 9.9 SSW 24 37 13 20 1018.0 1017.5 0.0
08/05:00pm 28.2 23.9 12.1 37 9.4 SSW 26 35 14 19 1018.2 1017.7 0.0
08/04:30pm 28.1 24.2 12.0 36 9.4 SSW 24 32 13 17 1018.3 1017.8 0.0
08/04:00pm 28.4 25.3 13.5 40 8.9 SSW 22 37 12 20 1018.5 1018.0 0.0
08/03:30pm 28.3 24.9 12.6 38 9.2 SSW 22 32 12 17 1018.8 1018.2 0.0
08/03:00pm 28.0 25.3 13.5 41 8.6 SSW 20 32 11 17 1019.0 1018.4 0.0
08/02:30pm 28.1 25.8 14.7 44 8.1 SW 20 30 11 16 1019.2 1018.6 0.0
08/02:00pm 27.6 25.2 15.3 47 7.5 SSW 22 32 12 17 1019.3 1018.7 0.0
08/01:30pm 27.4 25.5 15.7 48 7.2 SW 20 28 11 15 1019.5 1018.9 0.0
08/01:00pm 27.3 25.7 16.0 50 7.0 SW 19 30 10 16 1019.6 1019.0 0.0
08/12:30pm 26.1 24.1 15.5 52 6.5 SSW 20 30 11 16 1020.0 1019.4 0.0
08/12:00pm 26.0 24.4 16.5 55 5.9 SSW 20 28 11 15 1020.2 1019.6 0.0
08/11:30am 25.3 22.9 15.3 54 6.1 SSW 22 28 12 15 1020.4 1019.8 0.0
08/11:00am 24.2 21.6 14.9 56 5.6 SSW 22 28 12 15 1020.6 1020.1 0.0
08/10:30am 23.4 21.1 14.7 58 5.2 SSW 20 30 11 16 1020.6 1020.1 0.0
08/10:00am 22.4 20.0 14.5 61 4.7 SSW 20 24 11 13 1020.5 1020.0 0.0
08/09:30am 21.3 18.6 14.7 66 3.9 SSW 22 30 12 16 1020.5 1020.0 0.0
08/09:00am 20.5 18.2 14.6 69 3.5 SSW 20 30 11 16 1020.4 1019.8 0.0
08/08:30am 19.8 17.5 14.6 72 3.0 S 20 30 11 16 1020.2 1019.6 0.0
08/08:00am 18.8 17.0 14.5 76 2.5 SSW 17 24 9 13 1020.0 1019.4 0.0
08/07:30am 17.9 15.7 14.4 80 2.0 SSW 19 24 10 13 1019.7 1019.1 0.0
08/07:00am 17.5 15.7 14.4 82 1.8 SSW 17 20 9 11 1019.5 1018.9 0.0
08/06:30am 17.6 15.7 14.3 81 1.9 SSW 17 24 9 13 1019.2 1018.6 0.0
08/06:00am 17.7 15.9 14.4 81 1.9 SSW 17 22 9 12 1018.8 1018.2 0.0
08/05:30am 17.8 16.4 14.5 81 1.9 SSW 15 20 8 11 1018.6 1018.1 0.0
08/05:00am 17.9 16.5 14.4 80 2.0 SSW 15 20 8 11 1018.5 1018.0 0.0
08/04:30am 18.2 16.5 14.7 80 2.0 SSW 17 20 9 11 1018.4 1017.9 0.0
08/04:00am 18.3 16.6 14.8 80 2.0 SSW 17 24 9 13 1018.4 1017.9 0.0
08/03:30am 18.4 16.8 14.9 80 2.0 SSW 17 20 9 11 1018.3 1017.8 0.0
08/03:00am 18.6 17.0 14.9 79 2.2 SSW 17 26 9 14 1018.3 1017.8 0.0
08/02:30am 18.7 16.5 15.0 79 2.2 SSW 20 32 11 17 1018.2 1017.7 0.0
08/02:00am 19.1 17.4 14.6 75 2.6 SSW 17 24 9 13 1018.2 1017.7 0.0
08/01:30am 19.9 17.9 14.0 69 3.4 SSW 17 26 9 14 1018.1 1017.6 0.0
08/01:00am 20.1 18.5 13.8 67 3.6 SSW 15 24 8 13 1018.1 1017.6 0.0
08/12:30am 20.6 18.6 12.6 60 4.5 SSW 15 20 8 11 1018.1 1017.6 0.0
08/12:00am 21.3 18.6 11.6 54 5.4 SSW 17 20 9 11 1018.0 1017.5 0.0
 
Date/Time
EDT
Temp
°C
App
Temp
°C
Dew
Point
Rel
Hum
%
Delta-T
°C
Wind Press
QNH
hPa
Press
MSL
hPa
Rain
since 9 am
mm
Dir
 
Spd
km/h
Gust
km/h
Spd
kts
Gust
kts
07/11:30pm 21.5 19.1 11.5 53 5.6 SSW 15 20 8 11 1017.8 1017.3 0.0
07/11:00pm 22.2 19.4 11.3 50 6.1 SSW 17 22 9 12 1017.7 1017.2 0.0
07/10:30pm 22.6 20.6 11.4 49 6.3 SSW 13 19 7 10 1017.5 1017.0 0.0
07/10:00pm 22.9 20.1 11.3 48 6.5 SSW 17 24 9 13 1017.3 1016.8 0.0
07/09:30pm 23.6 20.2 11.3 46 6.9 SSW 20 30 11 16 1016.8 1016.3 0.0
07/09:00pm 25.5 22.8 13.4 47 7.1 SSW 20 28 11 15 1016.3 1015.8 0.0
07/08:30pm 28.4 27.0 13.5 40 8.9 SSW 13 20 7 11 1015.7 1015.2 0.0
07/08:00pm 30.5 30.5 13.7 35 10.1 E 6 9 3 5 1015.2 1014.7 0.0
07/07:30pm 31.2 32.1 13.9 35 10.5 E 2 6 1 3 1014.8 1014.3 0.0
07/07:00pm 31.4 31.6 14.1 35 10.5 E 6 9 3 5 1014.5 1014.0 0.0
07/06:30pm 31.8 31.6 13.5 32 11.1 E 7 13 4 7 1014.4 1013.9 0.0
07/06:00pm 31.9 30.9 12.2 30 11.7 E 9 11 5 6 1014.6 1014.1 0.0
07/05:30pm 32.2 32.7 13.9 33 11.2 S 4 7 2 4 1014.6 1014.1 0.0
07/05:00pm 32.2 32.7 13.9 33 11.2 SE 4 7 2 4 1014.8 1014.3 0.0
07/04:30pm 31.3 30.9 13.1 33 10.9 WSW 7 13 4 7 1015.0 1014.5 0.0
07/04:00pm 31.2 30.6 11.6 30 11.5 ESE 6 11 3 6 1015.4 1014.9 0.0

Other Formats:

Comma delimited format used in spreadsheet applications
http://www.bom.gov.au/fwo/IDV60801/IDV60801.94874.axf

JavaScript Object Notation format (JSON) in row-major order
http://www.bom.gov.au/fwo/IDV60801/IDV60801.94874.json